Terminal Aerodrome Forecast
Issued by NWS

Home | Current Version | Previous Version | Text Only | Print | Product List | Glossary On
Versions: 1 2 3 4 5 6 7 8 9 10 11 12 13 14 15 16 17 18 19 20
000
FTUS42 KTBW 230300 AAB
TAFPIE
TAF AMD
KPIE 230302Z 2303/2324 VRB05KT P6SM VCSH SCT025 BKN120
     FM230600 VRB03KT P6SM VCSH SCT020 BKN035
     FM231200 17004KT P6SM VCSH SCT025 BKN080
     FM231800 VRB06KT P6SM VCTS SCT025CB BKN050=

USA.gov is the U.S. government's official web portal to all federal, state and local government web resources and services.